sensor_id;sensor_type;location;lat;lon;timestamp;temperature;humidity
66582;SHT31;53438;48.898;2.308;2023-12-20T00:01:35;9.43;91.13
66582;SHT31;53438;48.898;2.308;2023-12-20T00:04:00;9.43;90.69
66582;SHT31;53438;48.898;2.308;2023-12-20T00:06:25;9.40;90.05
66582;SHT31;53438;48.898;2.308;2023-12-20T00:08:50;9.40;89.37
66582;SHT31;53438;48.898;2.308;2023-12-20T00:11:16;9.43;88.99
66582;SHT31;53438;48.898;2.308;2023-12-20T00:13:41;9.43;89.11
66582;SHT31;53438;48.898;2.308;2023-12-20T00:16:06;9.39;88.65
66582;SHT31;53438;48.898;2.308;2023-12-20T00:18:32;9.36;88.59
66582;SHT31;53438;48.898;2.308;2023-12-20T00:20:57;9.34;88.45
66582;SHT31;53438;48.898;2.308;2023-12-20T00:23:23;9.28;87.19
66582;SHT31;53438;48.898;2.308;2023-12-20T00:25:49;9.25;86.41
66582;SHT31;53438;48.898;2.308;2023-12-20T00:28:14;9.17;85.01
66582;SHT31;53438;48.898;2.308;2023-12-20T00:30:39;9.17;85.15
66582;SHT31;53438;48.898;2.308;2023-12-20T00:33:05;9.14;84.34
66582;SHT31;53438;48.898;2.308;2023-12-20T00:35:30;9.10;83.93
66582;SHT31;53438;48.898;2.308;2023-12-20T00:37:55;9.05;82.63
66582;SHT31;53438;48.898;2.308;2023-12-20T00:40:21;8.97;82.18
66582;SHT31;53438;48.898;2.308;2023-12-20T00:42:47;8.98;82.35
66582;SHT31;53438;48.898;2.308;2023-12-20T00:45:13;8.92;81.74
66582;SHT31;53438;48.898;2.308;2023-12-20T00:47:39;8.88;80.91
66582;SHT31;53438;48.898;2.308;2023-12-20T00:50:05;8.88;80.99
66582;SHT31;53438;48.898;2.308;2023-12-20T00:52:31;8.83;80.77
66582;SHT31;53438;48.898;2.308;2023-12-20T00:54:56;8.78;80.88
66582;SHT31;53438;48.898;2.308;2023-12-20T00:57:22;8.81;80.91
66582;SHT31;53438;48.898;2.308;2023-12-20T00:59:47;8.74;80.51
66582;SHT31;53438;48.898;2.308;2023-12-20T04:01:09;7.56;83.88
66582;SHT31;53438;48.898;2.308;2023-12-20T04:03:37;7.61;84.15
66582;SHT31;53438;48.898;2.308;2023-12-20T04:06:02;7.66;84.03
66582;SHT31;53438;48.898;2.308;2023-12-20T04:08:27;7.70;83.97
66582;SHT31;53438;48.898;2.308;2023-12-20T04:10:53;7.66;84.10
66582;SHT31;53438;48.898;2.308;2023-12-20T04:13:18;7.63;83.96
66582;SHT31;53438;48.898;2.308;2023-12-20T04:15:43;7.58;83.71
66582;SHT31;53438;48.898;2.308;2023-12-20T04:18:09;7.53;83.86
66582;SHT31;53438;48.898;2.308;2023-12-20T04:20:34;7.58;84.04
66582;SHT31;53438;48.898;2.308;2023-12-20T04:22:59;7.54;83.89
66582;SHT31;53438;48.898;2.308;2023-12-20T04:25:25;7.53;83.81
66582;SHT31;53438;48.898;2.308;2023-12-20T04:27:50;7.60;84.05
66582;SHT31;53438;48.898;2.308;2023-12-20T04:30:15;7.60;84.02
66582;SHT31;53438;48.898;2.308;2023-12-20T04:32:41;7.57;83.74
66582;SHT31;53438;48.898;2.308;2023-12-20T04:35:06;7.61;83.64
66582;SHT31;53438;48.898;2.308;2023-12-20T04:37:33;7.60;83.61
66582;SHT31;53438;48.898;2.308;2023-12-20T04:39:59;7.56;83.74
66582;SHT31;53438;48.898;2.308;2023-12-20T04:42:24;7.57;83.70
66582;SHT31;53438;48.898;2.308;2023-12-20T04:44:49;7.57;83.54
66582;SHT31;53438;48.898;2.308;2023-12-20T04:47:15;7.47;83.72
66582;SHT31;53438;48.898;2.308;2023-12-20T04:49:40;7.50;83.92
66582;SHT31;53438;48.898;2.308;2023-12-20T04:52:05;7.53;83.68
66582;SHT31;53438;48.898;2.308;2023-12-20T04:54:31;7.51;83.70
66582;SHT31;53438;48.898;2.308;2023-12-20T04:56:56;7.51;83.43
66582;SHT31;53438;48.898;2.308;2023-12-20T04:59:21;7.51;83.68
66582;SHT31;53438;48.898;2.308;2023-12-20T05:01:47;7.51;83.27
66582;SHT31;53438;48.898;2.308;2023-12-20T05:04:12;7.53;83.31
66582;SHT31;53438;48.898;2.308;2023-12-20T05:06:38;7.53;83.14
66582;SHT31;53438;48.898;2.308;2023-12-20T05:09:03;7.54;83.12
66582;SHT31;53438;48.898;2.308;2023-12-20T05:11:28;7.53;82.94
66582;SHT31;53438;48.898;2.308;2023-12-20T05:13:54;7.48;82.88
66582;SHT31;53438;48.898;2.308;2023-12-20T05:16:19;7.56;82.95
66582;SHT31;53438;48.898;2.308;2023-12-20T05:18:45;7.58;82.92
66582;SHT31;53438;48.898;2.308;2023-12-20T05:21:11;7.56;82.51
66582;SHT31;53438;48.898;2.308;2023-12-20T05:23:36;7.54;82.77
66582;SHT31;53438;48.898;2.308;2023-12-20T05:26:01;7.51;82.53
66582;SHT31;53438;48.898;2.308;2023-12-20T05:28:27;7.53;82.83
66582;SHT31;53438;48.898;2.308;2023-12-20T05:30:52;7.50;82.81
66582;SHT31;53438;48.898;2.308;2023-12-20T05:33:18;7.50;82.95
66582;SHT31;53438;48.898;2.308;2023-12-20T05:35:43;7.42;83.02
66582;SHT31;53438;48.898;2.308;2023-12-20T05:38:09;7.40;83.11
66582;SHT31;53438;48.898;2.308;2023-12-20T05:40:34;7.44;83.26
66582;SHT31;53438;48.898;2.308;2023-12-20T05:42:59;7.40;83.04
66582;SHT31;53438;48.898;2.308;2023-12-20T05:45:25;7.50;83.24
66582;SHT31;53438;48.898;2.308;2023-12-20T05:47:50;7.34;83.21
66582;SHT31;53438;48.898;2.308;2023-12-20T05:50:15;7.38;83.29
66582;SHT31;53438;48.898;2.308;2023-12-20T05:52:41;7.36;83.43
66582;SHT31;53438;48.898;2.308;2023-12-20T05:55:06;7.34;83.60
66582;SHT31;53438;48.898;2.308;2023-12-20T05:57:31;7.31;83.49
66582;SHT31;53438;48.898;2.308;2023-12-20T05:59:57;7.36;83.47
66582;SHT31;53438;48.898;2.308;2023-12-20T06:02:23;7.40;83.52
66582;SHT31;53438;48.898;2.308;2023-12-20T06:04:48;7.42;83.51
66582;SHT31;53438;48.898;2.308;2023-12-20T06:07:14;7.34;83.69
66582;SHT31;53438;48.898;2.308;2023-12-20T06:09:39;7.28;83.36
66582;SHT31;53438;48.898;2.308;2023-12-20T06:12:06;7.33;83.48
66582;SHT31;53438;48.898;2.308;2023-12-20T06:14:31;7.42;83.42
66582;SHT31;53438;48.898;2.308;2023-12-20T06:16:57;7.38;83.52
66582;SHT31;53438;48.898;2.308;2023-12-20T06:19:22;7.37;83.41
66582;SHT31;53438;48.898;2.308;2023-12-20T06:21:48;7.27;83.49
66582;SHT31;53438;48.898;2.308;2023-12-20T06:24:13;7.33;83.69
66582;SHT31;53438;48.898;2.308;2023-12-20T06:26:39;7.27;83.59
66582;SHT31;53438;48.898;2.308;2023-12-20T06:29:04;7.33;83.69
66582;SHT31;53438;48.898;2.308;2023-12-20T06:31:30;7.38;83.64
66582;SHT31;53438;48.898;2.308;2023-12-20T06:33:55;7.38;83.50
66582;SHT31;53438;48.898;2.308;2023-12-20T06:36:23;7.40;83.49
66582;SHT31;53438;48.898;2.308;2023-12-20T06:38:49;7.46;83.53
66582;SHT31;53438;48.898;2.308;2023-12-20T06:41:15;7.50;83.37
66582;SHT31;53438;48.898;2.308;2023-12-20T06:43:40;7.40;83.36
66582;SHT31;53438;48.898;2.308;2023-12-20T06:46:06;7.34;83.75
66582;SHT31;53438;48.898;2.308;2023-12-20T06:48:31;7.23;83.84
66582;SHT31;53438;48.898;2.308;2023-12-20T06:50:59;7.15;84.22
66582;SHT31;53438;48.898;2.308;2023-12-20T06:53:24;7.19;84.43
66582;SHT31;53438;48.898;2.308;2023-12-20T06:55:50;7.12;84.52
66582;SHT31;53438;48.898;2.308;2023-12-20T06:58:15;7.15;84.69
66582;SHT31;53438;48.898;2.308;2023-12-20T07:00:40;7.20;84.55
66582;SHT31;53438;48.898;2.308;2023-12-20T07:03:05;7.28;84.48
66582;SHT31;53438;48.898;2.308;2023-12-20T07:05:31;7.12;84.33
66582;SHT31;53438;48.898;2.308;2023-12-20T07:07:56;7.15;84.75
66582;SHT31;53438;48.898;2.308;2023-12-20T07:10:22;7.17;84.83
66582;SHT31;53438;48.898;2.308;2023-12-20T07:12:47;7.12;84.98
66582;SHT31;53438;48.898;2.308;2023-12-20T07:15:14;7.10;85.08
66582;SHT31;53438;48.898;2.308;2023-12-20T07:17:39;7.19;84.92
66582;SHT31;53438;48.898;2.308;2023-12-20T07:20:05;7.06;85.23
66582;SHT31;53438;48.898;2.308;2023-12-20T07:22:33;7.06;85.25
66582;SHT31;53438;48.898;2.308;2023-12-20T07:24:59;7.07;85.42
66582;SHT31;53438;48.898;2.308;2023-12-20T07:27:25;7.17;85.16
66582;SHT31;53438;48.898;2.308;2023-12-20T07:29:51;7.20;85.14
66582;SHT31;53438;48.898;2.308;2023-12-20T07:32:16;7.16;85.09
66582;SHT31;53438;48.898;2.308;2023-12-20T07:34:41;7.13;85.18
66582;SHT31;53438;48.898;2.308;2023-12-20T07:37:07;7.16;85.20
66582;SHT31;53438;48.898;2.308;2023-12-20T07:39:35;7.20;85.23
66582;SHT31;53438;48.898;2.308;2023-12-20T07:42:00;7.22;85.13
66582;SHT31;53438;48.898;2.308;2023-12-20T07:44:26;7.22;85.32
66582;SHT31;53438;48.898;2.308;2023-12-20T07:46:51;7.20;85.31
66582;SHT31;53438;48.898;2.308;2023-12-20T07:49:16;7.19;85.26
66582;SHT31;53438;48.898;2.308;2023-12-20T07:51:42;7.23;85.59
66582;SHT31;53438;48.898;2.308;2023-12-20T07:54:07;7.22;85.47
66582;SHT31;53438;48.898;2.308;2023-12-20T07:56:33;7.22;85.38
66582;SHT31;53438;48.898;2.308;2023-12-20T07:58:58;7.17;85.39
66582;SHT31;53438;48.898;2.308;2023-12-20T08:01:24;7.12;85.68
66582;SHT31;53438;48.898;2.308;2023-12-20T08:03:49;7.16;85.63
66582;SHT31;53438;48.898;2.308;2023-12-20T08:06:15;7.12;85.63
66582;SHT31;53438;48.898;2.308;2023-12-20T08:08:42;7.20;85.59
66582;SHT31;53438;48.898;2.308;2023-12-20T08:11:07;7.13;85.56
66582;SHT31;53438;48.898;2.308;2023-12-20T08:13:33;7.19;85.69
66582;SHT31;53438;48.898;2.308;2023-12-20T08:15:58;7.22;85.74
66582;SHT31;53438;48.898;2.308;2023-12-20T08:18:24;7.23;85.65
66582;SHT31;53438;48.898;2.308;2023-12-20T08:20:49;7.23;85.61
66582;SHT31;53438;48.898;2.308;2023-12-20T08:23:15;7.30;85.32
66582;SHT31;53438;48.898;2.308;2023-12-20T08:25:40;7.30;85.19
66582;SHT31;53438;48.898;2.308;2023-12-20T08:28:06;7.37;85.12
66582;SHT31;53438;48.898;2.308;2023-12-20T08:30:31;7.43;85.10
66582;SHT31;53438;48.898;2.308;2023-12-20T08:33:00;7.47;84.68
66582;SHT31;53438;48.898;2.308;2023-12-20T08:35:25;7.50;84.27
66582;SHT31;53438;48.898;2.308;2023-12-20T08:37:50;7.57;84.01
66582;SHT31;53438;48.898;2.308;2023-12-20T08:40:16;7.68;83.96
66582;SHT31;53438;48.898;2.308;2023-12-20T08:42:41;7.67;84.03
66582;SHT31;53438;48.898;2.308;2023-12-20T08:45:07;7.78;83.74
66582;SHT31;53438;48.898;2.308;2023-12-20T08:47:32;7.81;83.55
66582;SHT31;53438;48.898;2.308;2023-12-20T08:49:58;7.82;83.10
66582;SHT31;53438;48.898;2.308;2023-12-20T08:52:25;7.79;82.95
66582;SHT31;53438;48.898;2.308;2023-12-20T08:54:52;7.79;82.82
66582;SHT31;53438;48.898;2.308;2023-12-20T08:57:20;7.85;82.99
66582;SHT31;53438;48.898;2.308;2023-12-20T08:59:47;7.84;82.68
66582;SHT31;53438;48.898;2.308;2023-12-20T09:02:12;7.85;82.89
66582;SHT31;53438;48.898;2.308;2023-12-20T09:04:38;7.84;82.75
66582;SHT31;53438;48.898;2.308;2023-12-20T09:07:03;7.84;82.44
66582;SHT31;53438;48.898;2.308;2023-12-20T09:09:28;7.91;82.47
66582;SHT31;53438;48.898;2.308;2023-12-20T09:11:54;7.91;82.48
66582;SHT31;53438;48.898;2.308;2023-12-20T09:14:19;7.94;82.49
66582;SHT31;53438;48.898;2.308;2023-12-20T09:16:45;8.02;82.31
66582;SHT31;53438;48.898;2.308;2023-12-20T09:19:10;8.03;82.37
66582;SHT31;53438;48.898;2.308;2023-12-20T09:21:35;8.03;82.35
66582;SHT31;53438;48.898;2.308;2023-12-20T09:24:01;8.03;82.54
66582;SHT31;53438;48.898;2.308;2023-12-20T09:26:26;8.03;82.53
66582;SHT31;53438;48.898;2.308;2023-12-20T09:28:51;8.12;82.46
66582;SHT31;53438;48.898;2.308;2023-12-20T09:31:17;8.05;82.30
66582;SHT31;53438;48.898;2.308;2023-12-20T09:33:42;8.09;82.71
66582;SHT31;53438;48.898;2.308;2023-12-20T09:36:07;8.08;82.52
66582;SHT31;53438;48.898;2.308;2023-12-20T09:38:33;8.13;82.68
66582;SHT31;53438;48.898;2.308;2023-12-20T09:40:58;8.13;82.48
66582;SHT31;53438;48.898;2.308;2023-12-20T09:43:24;8.18;82.58
66582;SHT31;53438;48.898;2.308;2023-12-20T09:45:53;8.25;82.52
66582;SHT31;53438;48.898;2.308;2023-12-20T09:48:19;8.33;82.57
66582;SHT31;53438;48.898;2.308;2023-12-20T09:50:45;8.28;82.43
66582;SHT31;53438;48.898;2.308;2023-12-20T09:53:14;8.28;82.31
66582;SHT31;53438;48.898;2.308;2023-12-20T09:55:40;8.18;82.53
66582;SHT31;53438;48.898;2.308;2023-12-20T09:58:06;8.28;82.45
66582;SHT31;53438;48.898;2.308;2023-12-20T10:00:36;8.24;82.27
66582;SHT31;53438;48.898;2.308;2023-12-20T10:03:03;8.30;82.63
66582;SHT31;53438;48.898;2.308;2023-12-20T10:05:33;8.32;82.23
66582;SHT31;53438;48.898;2.308;2023-12-20T10:07:59;8.36;82.53
66582;SHT31;53438;48.898;2.308;2023-12-20T10:10:25;8.36;81.98
66582;SHT31;53438;48.898;2.308;2023-12-20T10:15:28;8.39;82.40
66582;SHT31;53438;48.898;2.308;2023-12-20T10:17:53;8.35;82.36
66582;SHT31;53438;48.898;2.308;2023-12-20T10:20:20;8.39;82.56
66582;SHT31;53438;48.898;2.308;2023-12-20T10:22:46;8.35;82.38
66582;SHT31;53438;48.898;2.308;2023-12-20T10:25:11;8.37;82.62
66582;SHT31;53438;48.898;2.308;2023-12-20T10:27:37;8.37;82.61
66582;SHT31;53438;48.898;2.308;2023-12-20T10:30:02;8.42;82.73
66582;SHT31;53438;48.898;2.308;2023-12-20T10:32:28;8.45;82.43
66582;SHT31;53438;48.898;2.308;2023-12-20T10:34:54;8.45;82.42
66582;SHT31;53438;48.898;2.308;2023-12-20T10:37:20;8.49;82.62
66582;SHT31;53438;48.898;2.308;2023-12-20T10:39:51;8.61;82.03
66582;SHT31;53438;48.898;2.308;2023-12-20T10:42:19;8.74;82.36
66582;SHT31;53438;48.898;2.308;2023-12-20T10:44:46;8.68;81.78
66582;SHT31;53438;48.898;2.308;2023-12-20T10:47:13;8.73;82.12
66582;SHT31;53438;48.898;2.308;2023-12-20T10:49:39;8.73;81.99
66582;SHT31;53438;48.898;2.308;2023-12-20T10:52:05;8.68;81.99
66582;SHT31;53438;48.898;2.308;2023-12-20T10:54:31;8.67;82.01
66582;SHT31;53438;48.898;2.308;2023-12-20T10:56:58;8.64;81.98
66582;SHT31;53438;48.898;2.308;2023-12-20T10:59:24;8.63;82.11
66582;SHT31;53438;48.898;2.308;2023-12-20T11:01:50;8.67;82.24
66582;SHT31;53438;48.898;2.308;2023-12-20T11:04:25;8.66;82.26
66582;SHT31;53438;48.898;2.308;2023-12-20T11:06:56;8.67;82.36
66582;SHT31;53438;48.898;2.308;2023-12-20T11:09:26;8.74;82.29
66582;SHT31;53438;48.898;2.308;2023-12-20T11:12:04;8.78;81.76
66582;SHT31;53438;48.898;2.308;2023-12-20T11:14:34;8.81;82.13
66582;SHT31;53438;48.898;2.308;2023-12-20T11:17:10;8.78;82.10
66582;SHT31;53438;48.898;2.308;2023-12-20T11:22:22;8.87;81.97
66582;SHT31;53438;48.898;2.308;2023-12-20T11:24:48;8.84;81.89
66582;SHT31;53438;48.898;2.308;2023-12-20T11:27:14;8.85;81.85
66582;SHT31;53438;48.898;2.308;2023-12-20T11:29:40;8.91;81.20
66582;SHT31;53438;48.898;2.308;2023-12-20T11:37:21;9.08;81.27
66582;SHT31;53438;48.898;2.308;2023-12-20T11:39:55;9.07;81.21
66582;SHT31;53438;48.898;2.308;2023-12-20T11:42:21;9.15;80.99
66582;SHT31;53438;48.898;2.308;2023-12-20T11:44:46;9.18;81.00
66582;SHT31;53438;48.898;2.308;2023-12-20T11:47:12;9.24;79.87
66582;SHT31;53438;48.898;2.308;2023-12-20T11:49:39;9.18;80.41
66582;SHT31;53438;48.898;2.308;2023-12-20T11:52:04;9.26;80.45
66582;SHT31;53438;48.898;2.308;2023-12-20T11:54:30;9.18;80.24
66582;SHT31;53438;48.898;2.308;2023-12-20T11:56:55;9.31;80.18
66582;SHT31;53438;48.898;2.308;2023-12-20T11:59:21;9.34;80.49
66582;SHT31;53438;48.898;2.308;2023-12-20T12:01:50;9.43;80.33
66582;SHT31;53438;48.898;2.308;2023-12-20T12:04:15;9.35;80.41
66582;SHT31;53438;48.898;2.308;2023-12-20T12:06:43;9.40;80.05
66582;SHT31;53438;48.898;2.308;2023-12-20T12:09:08;9.38;80.40
66582;SHT31;53438;48.898;2.308;2023-12-20T12:11:33;9.36;80.87
66582;SHT31;53438;48.898;2.308;2023-12-20T12:13:59;9.40;80.81
66582;SHT31;53438;48.898;2.308;2023-12-20T12:16:25;9.40;80.89
66582;SHT31;53438;48.898;2.308;2023-12-20T12:18:57;9.35;80.91
66582;SHT31;53438;48.898;2.308;2023-12-20T12:21:23;9.34;81.33
66582;SHT31;53438;48.898;2.308;2023-12-20T12:23:48;9.28;81.37
66582;SHT31;53438;48.898;2.308;2023-12-20T12:26:13;9.35;81.83
66582;SHT31;53438;48.898;2.308;2023-12-20T12:28:42;9.32;82.04
66582;SHT31;53438;48.898;2.308;2023-12-20T12:31:08;9.28;82.91
66582;SHT31;53438;48.898;2.308;2023-12-20T12:33:34;9.28;83.85
66582;SHT31;53438;48.898;2.308;2023-12-20T12:36:03;9.22;84.28
66582;SHT31;53438;48.898;2.308;2023-12-20T12:38:30;9.19;84.56
66582;SHT31;53438;48.898;2.308;2023-12-20T12:40:56;9.18;85.26
66582;SHT31;53438;48.898;2.308;2023-12-20T12:43:21;9.18;85.29
66582;SHT31;53438;48.898;2.308;2023-12-20T12:45:48;9.22;85.33
66582;SHT31;53438;48.898;2.308;2023-12-20T12:48:14;9.19;85.01
66582;SHT31;53438;48.898;2.308;2023-12-20T12:50:39;9.31;85.32
66582;SHT31;53438;48.898;2.308;2023-12-20T12:53:04;9.29;84.80
66582;SHT31;53438;48.898;2.308;2023-12-20T12:55:30;9.31;85.10
66582;SHT31;53438;48.898;2.308;2023-12-20T12:57:55;9.32;85.05
66582;SHT31;53438;48.898;2.308;2023-12-20T13:00:21;9.38;85.04
66582;SHT31;53438;48.898;2.308;2023-12-20T13:02:47;9.35;85.09
66582;SHT31;53438;48.898;2.308;2023-12-20T13:05:12;9.38;85.02
66582;SHT31;53438;48.898;2.308;2023-12-20T13:07:37;9.46;84.62
66582;SHT31;53438;48.898;2.308;2023-12-20T13:10:05;9.52;84.63
66582;SHT31;53438;48.898;2.308;2023-12-20T13:12:31;9.60;84.22
66582;SHT31;53438;48.898;2.308;2023-12-20T13:14:57;9.67;84.06
66582;SHT31;53438;48.898;2.308;2023-12-20T13:17:22;9.76;83.65
66582;SHT31;53438;48.898;2.308;2023-12-20T13:19:47;9.72;83.61
66582;SHT31;53438;48.898;2.308;2023-12-20T13:22:15;9.70;83.82
66582;SHT31;53438;48.898;2.308;2023-12-20T13:24:40;9.69;83.72
66582;SHT31;53438;48.898;2.308;2023-12-20T13:27:05;9.72;82.67
66582;SHT31;53438;48.898;2.308;2023-12-20T13:29:31;9.85;81.98
66582;SHT31;53438;48.898;2.308;2023-12-20T13:31:56;9.89;82.23
66582;SHT31;53438;48.898;2.308;2023-12-20T13:34:22;9.82;82.53
66582;SHT31;53438;48.898;2.308;2023-12-20T13:36:48;9.94;82.01
66582;SHT31;53438;48.898;2.308;2023-12-20T13:39:15;9.98;82.12
66582;SHT31;53438;48.898;2.308;2023-12-20T13:41:42;10.01;81.74
66582;SHT31;53438;48.898;2.308;2023-12-20T13:44:07;10.17;80.53
66582;SHT31;53438;48.898;2.308;2023-12-20T13:46:32;10.17;80.21
66582;SHT31;53438;48.898;2.308;2023-12-20T13:48:58;10.16;79.60
66582;SHT31;53438;48.898;2.308;2023-12-20T13:51:23;10.17;79.81
66582;SHT31;53438;48.898;2.308;2023-12-20T13:53:48;10.13;80.10
66582;SHT31;53438;48.898;2.308;2023-12-20T13:56:15;10.17;79.85
66582;SHT31;53438;48.898;2.308;2023-12-20T13:58:40;10.16;79.55
66582;SHT31;53438;48.898;2.308;2023-12-20T14:01:07;10.13;79.52
66582;SHT31;53438;48.898;2.308;2023-12-20T14:03:32;10.13;79.01
66582;SHT31;53438;48.898;2.308;2023-12-20T14:05:58;10.11;79.63
66582;SHT31;53438;48.898;2.308;2023-12-20T14:08:23;10.08;79.57
66582;SHT31;53438;48.898;2.308;2023-12-20T14:26:30;9.63;85.84
66582;SHT31;53438;48.898;2.308;2023-12-20T14:28:56;9.62;86.74
66582;SHT31;53438;48.898;2.308;2023-12-20T14:31:21;9.56;87.63
66582;SHT31;53438;48.898;2.308;2023-12-20T14:33:49;9.57;87.62
66582;SHT31;53438;48.898;2.308;2023-12-20T14:36:16;9.50;87.68
66582;SHT31;53438;48.898;2.308;2023-12-20T14:38:43;9.45;88.10
66582;SHT31;53438;48.898;2.308;2023-12-20T14:41:08;9.43;88.21
66582;SHT31;53438;48.898;2.308;2023-12-20T14:43:34;9.45;87.99
66582;SHT31;53438;48.898;2.308;2023-12-20T14:45:59;9.47;87.85
66582;SHT31;53438;48.898;2.308;2023-12-20T14:48:24;9.47;87.78
66582;SHT31;53438;48.898;2.308;2023-12-20T14:50:50;9.50;87.50
66582;SHT31;53438;48.898;2.308;2023-12-20T14:53:17;9.60;87.43
66582;SHT31;53438;48.898;2.308;2023-12-20T14:55:44;9.63;86.72
66582;SHT31;53438;48.898;2.308;2023-12-20T14:58:09;9.69;85.63
66582;SHT31;53438;48.898;2.308;2023-12-20T15:00:35;9.67;85.79
66582;SHT31;53438;48.898;2.308;2023-12-20T15:03:00;9.75;85.05
66582;SHT31;53438;48.898;2.308;2023-12-20T15:05:25;9.79;84.08
66582;SHT31;53438;48.898;2.308;2023-12-20T15:07:52;9.82;84.75
66582;SHT31;53438;48.898;2.308;2023-12-20T15:10:18;9.91;83.23
66582;SHT31;53438;48.898;2.308;2023-12-20T15:12:43;9.87;83.81
66582;SHT31;53438;48.898;2.308;2023-12-20T15:15:09;9.87;83.59
66582;SHT31;53438;48.898;2.308;2023-12-20T15:17:37;9.96;82.74
66582;SHT31;53438;48.898;2.308;2023-12-20T15:20:03;9.98;82.93
66582;SHT31;53438;48.898;2.308;2023-12-20T15:22:34;10.03;82.75
66582;SHT31;53438;48.898;2.308;2023-12-20T15:25:00;10.04;82.68
66582;SHT31;53438;48.898;2.308;2023-12-20T15:27:26;10.06;82.55
66582;SHT31;53438;48.898;2.308;2023-12-20T15:29:51;10.00;82.94
66582;SHT31;53438;48.898;2.308;2023-12-20T15:32:18;10.04;82.58
66582;SHT31;53438;48.898;2.308;2023-12-20T15:34:44;10.04;82.50
66582;SHT31;53438;48.898;2.308;2023-12-20T15:37:10;10.06;82.54
66582;SHT31;53438;48.898;2.308;2023-12-20T15:39:35;10.03;82.67
66582;SHT31;53438;48.898;2.308;2023-12-20T15:42:01;10.03;82.25
66582;SHT31;53438;48.898;2.308;2023-12-20T15:44:26;10.06;82.35
66582;SHT31;53438;48.898;2.308;2023-12-20T15:46:51;10.06;82.38
66582;SHT31;53438;48.898;2.308;2023-12-20T15:49:17;10.06;82.19
66582;SHT31;53438;48.898;2.308;2023-12-20T15:51:44;10.07;82.27
66582;SHT31;53438;48.898;2.308;2023-12-20T15:54:09;10.10;82.34
66582;SHT31;53438;48.898;2.308;2023-12-20T15:56:35;10.07;82.87
66582;SHT31;53438;48.898;2.308;2023-12-20T15:59:02;10.07;82.48
66582;SHT31;53438;48.898;2.308;2023-12-20T16:01:29;10.07;82.70
66582;SHT31;53438;48.898;2.308;2023-12-20T16:03:54;10.04;83.38
66582;SHT31;53438;48.898;2.308;2023-12-20T16:06:19;10.07;83.10
66582;SHT31;53438;48.898;2.308;2023-12-20T16:08:46;10.08;83.29
66582;SHT31;53438;48.898;2.308;2023-12-20T16:11:11;10.06;83.80
66582;SHT31;53438;48.898;2.308;2023-12-20T16:13:37;10.06;84.00
66582;SHT31;53438;48.898;2.308;2023-12-20T16:16:03;10.03;84.04
66582;SHT31;53438;48.898;2.308;2023-12-20T16:18:29;10.01;83.83
66582;SHT31;53438;48.898;2.308;2023-12-20T16:20:54;10.04;83.65
66582;SHT31;53438;48.898;2.308;2023-12-20T16:23:20;10.06;84.08
66582;SHT31;53438;48.898;2.308;2023-12-20T16:25:45;10.01;84.15
66582;SHT31;53438;48.898;2.308;2023-12-20T16:28:10;10.04;84.38
66582;SHT31;53438;48.898;2.308;2023-12-20T16:30:36;10.00;84.38
66582;SHT31;53438;48.898;2.308;2023-12-20T16:33:02;10.01;84.50
66582;SHT31;53438;48.898;2.308;2023-12-20T16:35:27;9.97;84.55
66582;SHT31;53438;48.898;2.308;2023-12-20T16:37:53;9.97;84.62
66582;SHT31;53438;48.898;2.308;2023-12-20T16:40:18;9.96;84.57
66582;SHT31;53438;48.898;2.308;2023-12-20T16:42:49;10.00;84.59
66582;SHT31;53438;48.898;2.308;2023-12-20T16:45:15;9.96;84.68
66582;SHT31;53438;48.898;2.308;2023-12-20T16:47:40;9.93;84.53
66582;SHT31;53438;48.898;2.308;2023-12-20T16:50:06;9.94;84.80
66582;SHT31;53438;48.898;2.308;2023-12-20T16:52:31;9.97;84.49
66582;SHT31;53438;48.898;2.308;2023-12-20T16:54:58;9.97;84.47
66582;SHT31;53438;48.898;2.308;2023-12-20T16:57:23;9.97;84.45
66582;SHT31;53438;48.898;2.308;2023-12-20T16:59:48;9.97;84.44
66582;SHT31;53438;48.898;2.308;2023-12-20T17:02:14;9.98;83.99
66582;SHT31;53438;48.898;2.308;2023-12-20T17:04:39;9.98;84.40
66582;SHT31;53438;48.898;2.308;2023-12-20T17:07:04;9.98;84.25
66582;SHT31;53438;48.898;2.308;2023-12-20T17:09:30;10.00;84.31
66582;SHT31;53438;48.898;2.308;2023-12-20T17:11:56;10.00;84.34
66582;SHT31;53438;48.898;2.308;2023-12-20T17:14:22;9.97;84.12
66582;SHT31;53438;48.898;2.308;2023-12-20T17:16:47;10.03;84.06
66582;SHT31;53438;48.898;2.308;2023-12-20T17:19:14;10.06;83.93
66582;SHT31;53438;48.898;2.308;2023-12-20T17:21:39;10.01;84.16
66582;SHT31;53438;48.898;2.308;2023-12-20T17:24:05;10.04;84.21
66582;SHT31;53438;48.898;2.308;2023-12-20T17:26:30;10.06;84.24
66582;SHT31;53438;48.898;2.308;2023-12-20T17:28:56;10.04;84.32
66582;SHT31;53438;48.898;2.308;2023-12-20T17:31:21;10.01;84.56
66582;SHT31;53438;48.898;2.308;2023-12-20T17:33:46;10.01;84.57
66582;SHT31;53438;48.898;2.308;2023-12-20T17:36:12;10.01;85.18
66582;SHT31;53438;48.898;2.308;2023-12-20T17:38:39;10.03;85.16
66582;SHT31;53438;48.898;2.308;2023-12-20T17:41:05;9.98;85.21
66582;SHT31;53438;48.898;2.308;2023-12-20T17:43:32;9.98;84.96
66582;SHT31;53438;48.898;2.308;2023-12-20T17:45:57;10.03;85.02
66582;SHT31;53438;48.898;2.308;2023-12-20T17:48:23;10.04;84.83
66582;SHT31;53438;48.898;2.308;2023-12-20T17:50:48;10.04;84.59
66582;SHT31;53438;48.898;2.308;2023-12-20T17:53:14;10.03;84.90
66582;SHT31;53438;48.898;2.308;2023-12-20T17:55:39;10.01;84.95
66582;SHT31;53438;48.898;2.308;2023-12-20T17:58:05;10.01;84.80
66582;SHT31;53438;48.898;2.308;2023-12-20T18:00:32;10.06;84.73
66582;SHT31;53438;48.898;2.308;2023-12-20T18:02:58;10.03;84.81
66582;SHT31;53438;48.898;2.308;2023-12-20T18:05:24;10.06;84.82
66582;SHT31;53438;48.898;2.308;2023-12-20T18:07:52;10.06;84.89
66582;SHT31;53438;48.898;2.308;2023-12-20T18:10:19;10.04;85.05
66582;SHT31;53438;48.898;2.308;2023-12-20T18:12:45;10.06;85.33
66582;SHT31;53438;48.898;2.308;2023-12-20T18:15:14;10.01;85.64
66582;SHT31;53438;48.898;2.308;2023-12-20T18:17:40;10.01;85.40
66582;SHT31;53438;48.898;2.308;2023-12-20T18:20:06;10.06;85.37
66582;SHT31;53438;48.898;2.308;2023-12-20T18:22:32;10.04;85.10
66582;SHT31;53438;48.898;2.308;2023-12-20T18:24:57;10.06;85.24
66582;SHT31;53438;48.898;2.308;2023-12-20T18:27:23;10.06;85.42
66582;SHT31;53438;48.898;2.308;2023-12-20T18:29:48;10.07;85.17
66582;SHT31;53438;48.898;2.308;2023-12-20T18:32:14;10.08;85.14
66582;SHT31;53438;48.898;2.308;2023-12-20T18:34:40;10.08;84.91
66582;SHT31;53438;48.898;2.308;2023-12-20T18:37:06;10.06;85.17
66582;SHT31;53438;48.898;2.308;2023-12-20T18:39:34;10.11;85.08
66582;SHT31;53438;48.898;2.308;2023-12-20T18:42:00;10.07;85.20
66582;SHT31;53438;48.898;2.308;2023-12-20T18:44:25;10.06;85.22
66582;SHT31;53438;48.898;2.308;2023-12-20T18:46:50;10.06;85.17
66582;SHT31;53438;48.898;2.308;2023-12-20T18:49:16;10.08;85.35
66582;SHT31;53438;48.898;2.308;2023-12-20T18:51:41;10.07;85.11
66582;SHT31;53438;48.898;2.308;2023-12-20T18:54:07;10.07;85.25
66582;SHT31;53438;48.898;2.308;2023-12-20T18:56:32;10.08;85.34
66582;SHT31;53438;48.898;2.308;2023-12-20T18:59:00;10.07;85.41